Time;durP1;ratioP1;P1;durP2;ratioP2;P2;SDS_P1;SDS_P2;PMS_P1;PMS_P2;Temp;Humidity;BMP_temperature;BMP_pressure;BME280_temperature;BME280_humidity;BME280_pressure;Samples;Min_cycle;Max_cycle;Signal;HPM_P1;HPM_P2
2023/10/18 00:01:44;;;;;;;14.37;10.87;;;;;;;-144.30;100.00;85913.34;5033274;28;20570;-57
2023/10/18 00:04:14;;;;;;;12.83;10.83;;;;;;;-144.30;100.00;85959.06;5033305;28;20710;-57
2023/10/18 00:06:41;;;;;;;13.30;10.57;;;;;;;-144.30;100.00;85965.03;5032997;28;20193;-57
2023/10/18 00:11:51;;;;;;;13.97;11.53;;;;;;;-144.30;100.00;85921.28;5032436;28;20259;-58
2023/10/18 00:14:18;;;;;;;13.60;10.07;;;;;;;-144.30;100.00;85965.03;5033214;28;20197;-53
2023/10/18 00:16:45;;;;;;;13.23;10.70;;;;;;;-144.30;100.00;85974.97;5032930;28;20697;-52
2023/10/18 00:19:13;;;;;;;14.33;11.20;;;;;;;-144.30;100.00;85953.09;5032870;28;20208;-52
2023/10/18 00:21:40;;;;;;;12.93;10.83;;;;;;;-144.30;100.00;85911.34;5032510;28;20300;-51
2023/10/18 00:24:07;;;;;;;11.73;10.53;;;;;;;-144.30;100.00;85945.16;5032922;28;20225;-52
2023/10/18 00:26:34;;;;;;;12.47;10.27;;;;;;;-144.30;100.00;85921.28;5033200;28;20208;-53
2023/10/18 00:29:03;;;;;;;11.43;10.20;;;;;;;-144.30;100.00;85933.22;5032757;28;20331;-53
2023/10/18 00:31:30;;;;;;;14.27;10.87;;;;;;;-144.30;100.00;85909.34;5032665;28;20208;-51
2023/10/18 00:33:57;;;;;;;11.17;10.07;;;;;;;-144.30;100.00;85953.09;5032574;28;20197;-53
2023/10/18 00:36:24;;;;;;;13.73;10.63;;;;;;;-144.30;100.00;85931.22;5032672;28;20201;-52
2023/10/18 00:38:53;;;;;;;13.37;11.13;;;;;;;-144.30;100.00;85941.16;5032536;28;20256;-52
2023/10/18 00:41:25;;;;;;;12.57;10.53;;;;;;;-144.30;100.00;85917.31;5032395;28;20201;-53
2023/10/18 00:43:53;;;;;;;14.80;10.67;;;;;;;-144.30;100.00;85949.13;5032196;28;20235;-52
2023/10/18 00:46:22;;;;;;;13.67;10.30;;;;;;;-144.30;100.00;85947.13;5032300;28;20653;-52
2023/10/18 00:48:49;;;;;;;13.80;10.87;;;;;;;-144.30;100.00;85903.41;5032202;28;20663;-52
2023/10/18 00:51:18;;;;;;;13.37;10.60;;;;;;;-144.30;100.00;85969.00;5032227;28;20198;-53
2023/10/18 00:53:46;;;;;;;11.03;9.97;;;;;;;-144.30;100.00;85937.19;5032322;28;20689;-53
2023/10/18 00:56:15;;;;;;;18.00;11.50;;;;;;;-144.30;100.00;85984.91;5032275;28;20209;-53
2023/10/18 00:58:44;;;;;;;11.97;10.47;;;;;;;-144.30;100.00;85974.97;5032029;28;20208;-54
2023/10/18 01:01:12;;;;;;;13.97;11.73;;;;;;;-144.30;100.00;85945.16;5031996;28;20626;-53
2023/10/18 01:03:42;;;;;;;14.83;11.17;;;;;;;-144.30;100.00;85929.25;5032102;28;20291;-52
2023/10/18 01:06:12;;;;;;;12.57;10.93;;;;;;;-144.30;100.00;85955.09;5031997;28;20324;-52
2023/10/18 01:08:39;;;;;;;14.27;10.97;;;;;;;-144.30;100.00;85905.38;5031889;28;20208;-52
2023/10/18 01:11:10;;;;;;;11.67;10.40;;;;;;;-144.30;100.00;85961.06;5032035;28;20612;-52
2023/10/18 01:13:39;;;;;;;14.47;10.77;;;;;;;-144.30;100.00;85919.31;5031858;28;20197;-56
2023/10/18 01:16:09;;;;;;;14.57;10.57;;;;;;;-144.30;100.00;85913.34;5031775;28;20197;-57
2023/10/18 01:18:37;;;;;;;14.80;10.77;;;;;;;-144.30;100.00;85921.28;5032086;28;20201;-57
2023/10/18 01:21:19;;;;;;;15.87;11.27;;;;;;;-144.30;100.00;85857.66;5031990;28;20200;-57
2023/10/18 01:23:51;;;;;;;12.23;10.77;;;;;;;-144.30;100.00;85957.06;5031605;28;20201;-57
2023/10/18 01:26:19;;;;;;;14.07;11.83;;;;;;;-144.30;100.00;85941.16;5031467;28;20256;-57
2023/10/18 01:28:46;;;;;;;16.00;11.13;;;;;;;-144.30;100.00;85951.13;5031422;28;20320;-57
2023/10/18 01:31:13;;;;;;;15.30;12.13;;;;;;;-144.30;100.00;85980.94;5031423;28;20650;-57
2023/10/18 01:33:43;;;;;;;12.87;11.53;;;;;;;-144.30;100.00;85965.03;5031235;28;20204;-58
2023/10/18 01:36:14;;;;;;;14.87;11.27;;;;;;;-144.30;100.00;85937.19;5031466;28;20201;-57
2023/10/18 01:38:44;;;;;;;14.97;11.13;;;;;;;-144.30;100.00;85965.03;5031187;28;20193;-57
2023/10/18 01:41:13;;;;;;;17.43;11.70;;;;;;;-144.30;100.00;85937.19;5031668;28;20762;-57
2023/10/18 01:43:43;;;;;;;14.77;11.03;;;;;;;-144.30;100.00;85957.06;5031229;28;20262;-56
2023/10/18 01:46:13;;;;;;;12.63;11.20;;;;;;;-144.30;100.00;85951.13;5031318;28;20612;-56
2023/10/18 01:48:41;;;;;;;12.00;10.83;;;;;;;-144.30;100.00;85961.06;5031809;28;20201;-57
2023/10/18 01:51:09;;;;;;;12.70;11.37;;;;;;;-144.30;100.00;85937.19;5031217;28;20292;-51
2023/10/18 01:53:38;;;;;;;16.00;11.07;;;;;;;-144.30;100.00;85925.25;5030922;28;20248;-52
2023/10/18 01:56:06;;;;;;;14.67;12.10;;;;;;;-144.30;100.00;85915.31;5031226;28;20766;-57
2023/10/18 01:58:35;;;;;;;17.87;12.10;;;;;;;-144.30;100.00;85949.13;5031019;28;20197;-56
2023/10/18 02:01:08;;;;;;;11.90;10.33;;;;;;;-144.30;100.00;85909.34;5031178;28;20692;-57
2023/10/18 02:03:36;;;;;;;13.87;11.20;;;;;;;-144.30;100.00;85980.94;5031303;28;20252;-56
2023/10/18 02:06:06;;;;;;;17.73;10.93;;;;;;;-144.30;100.00;85953.09;5030837;28;20693;-56
2023/10/18 02:08:34;;;;;;;14.33;11.27;;;;;;;-144.30;100.00;85941.16;5031136;28;20700;-57
2023/10/18 02:11:01;;;;;;;14.83;11.90;;;;;;;-144.30;100.00;85931.22;5030844;28;20197;-57
2023/10/18 02:13:28;;;;;;;15.97;11.10;;;;;;;-144.30;100.00;85945.16;5030753;28;20213;-57
2023/10/18 02:15:56;;;;;;;15.90;11.37;;;;;;;-144.30;100.00;85907.38;5030639;28;20610;-56
2023/10/18 02:18:26;;;;;;;13.00;11.30;;;;;;;-144.30;100.00;85972.97;5030547;28;20201;-57
2023/10/18 02:20:53;;;;;;;16.17;11.20;;;;;;;-144.30;100.00;85953.09;5030779;28;20591;-57
2023/10/18 02:23:21;;;;;;;15.67;11.93;;;;;;;-144.30;100.00;85925.25;5030575;28;20595;-57
2023/10/18 02:25:49;;;;;;;13.70;11.50;;;;;;;-144.30;100.00;85953.09;5030413;28;20304;-56
2023/10/18 02:28:27;;;;;;;13.93;11.30;;;;;;;-144.30;100.00;85984.91;5030335;28;20282;-52
2023/10/18 02:31:07;;;;;;;16.73;12.20;;;;;;;-144.30;100.00;85945.16;5030819;28;20689;-52
2023/10/18 02:33:36;;;;;;;14.07;12.27;;;;;;;-144.30;100.00;85949.13;5030326;28;20202;-53
2023/10/18 02:36:10;;;;;;;13.90;12.40;;;;;;;-144.30;100.00;85945.16;5030568;28;20589;-53
2023/10/18 02:38:39;;;;;;;15.77;12.60;;;;;;;-144.30;100.00;85931.22;5030412;28;20223;-52
2023/10/18 02:41:15;;;;;;;18.13;14.00;;;;;;;-144.30;100.00;85951.13;5030245;28;20209;-51
2023/10/18 02:43:45;;;;;;;17.67;13.53;;;;;;;-144.30;100.00;85925.25;5030419;28;20201;-53
2023/10/18 02:46:13;;;;;;;21.53;14.40;;;;;;;-144.30;100.00;85969.00;5029417;28;20221;-52
2023/10/18 02:48:44;;;;;;;24.87;15.33;;;;;;;-144.30;100.00;85992.88;5030216;28;20219;-52
2023/10/18 02:51:12;;;;;;;18.40;14.17;;;;;;;-144.30;100.00;85945.16;5030064;28;20201;-58
2023/10/18 02:53:41;;;;;;;18.10;14.20;;;;;;;-144.30;100.00;85969.00;5029894;28;20251;-52
2023/10/18 02:56:10;;;;;;;19.43;14.43;;;;;;;-144.30;100.00;85951.13;5030073;28;20288;-52
2023/10/18 02:58:38;;;;;;;21.63;14.83;;;;;;;-144.30;100.00;85893.44;5030255;28;20733;-52
2023/10/18 03:01:08;;;;;;;21.10;15.17;;;;;;;-144.30;100.00;85951.13;5030011;28;20204;-51
2023/10/18 03:03:39;;;;;;;19.27;15.07;;;;;;;-144.30;100.00;85921.28;5030000;28;20201;-56
2023/10/18 03:06:12;;;;;;;21.43;15.30;;;;;;;-144.30;100.00;85889.47;5029931;28;20782;-51
2023/10/18 03:08:42;;;;;;;21.43;15.13;;;;;;;-144.30;100.00;85953.09;5030326;28;20654;-53
2023/10/18 03:11:11;;;;;;;21.43;14.97;;;;;;;-144.30;100.00;85935.22;5039314;28;20216;-51
2023/10/18 03:13:38;;;;;;;24.30;15.17;;;;;;;-144.30;100.00;85947.13;5052867;28;20205;-52
2023/10/18 03:16:18;;;;;;;19.73;15.37;;;;;;;-144.30;100.00;85921.28;5045977;28;20670;-53
2023/10/18 03:18:45;;;;;;;18.47;15.30;;;;;;;-144.30;100.00;85937.19;5043583;28;20371;-53
2023/10/18 03:21:21;;;;;;;22.13;15.93;;;;;;;-144.30;100.00;86219.53;5039043;28;20204;-51
2023/10/18 03:23:50;;;;;;;20.77;15.87;;;;;;;-144.30;100.00;85953.09;5044428;28;20699;-53
2023/10/18 03:26:22;;;;;;;21.93;15.43;;;;;;;-144.30;100.00;85921.28;5046138;28;20221;-52
2023/10/18 03:28:50;;;;;;;26.37;15.70;;;;;;;-144.30;100.00;85935.22;5069518;28;20235;-52
2023/10/18 03:31:27;;;;;;;20.00;15.70;;;;;;;-144.30;100.00;85965.03;5069598;28;20233;-52
2023/10/18 03:33:59;;;;;;;18.30;15.40;;;;;;;-144.30;100.00;85937.19;5042723;28;20668;-52
2023/10/18 03:36:31;;;;;;;21.93;16.03;;;;;;;-144.30;100.00;85921.28;5037506;28;20185;-53
2023/10/18 03:39:00;;;;;;;24.53;16.83;;;;;;;-144.30;100.00;85976.97;5039598;28;20197;-53
2023/10/18 03:41:33;;;;;;;23.33;17.07;;;;;;;-144.30;100.00;85959.06;5049496;28;20199;-53
2023/10/18 03:44:06;;;;;;;22.17;16.83;;;;;;;-144.30;100.00;85925.25;5049007;28;20197;-53
2023/10/18 03:46:48;;;;;;;22.07;16.63;;;;;;;-144.30;100.00;85996.84;5047253;28;20217;-53
2023/10/18 03:49:27;;;;;;;25.83;17.33;;;;;;;-144.30;100.00;85939.19;5049051;28;20231;-53
2023/10/18 03:51:56;;;;;;;22.30;15.57;;;;;;;-144.30;100.00;85927.25;5038953;28;20201;-51
2023/10/18 03:54:27;;;;;;;22.40;17.07;;;;;;;-144.30;100.00;85939.19;5036575;28;20254;-59
2023/10/18 03:56:55;;;;;;;26.57;17.97;;;;;;;-144.30;100.00;85967.03;5038002;28;20685;-58
2023/10/18 03:59:25;;;;;;;23.43;17.93;;;;;;;-144.30;100.00;85953.09;5050170;28;20299;-57
2023/10/18 04:02:07;;;;;;;22.20;17.73;;;;;;;-144.30;100.00;85917.31;5053216;28;20634;-57
2023/10/18 04:04:38;;;;;;;30.57;18.10;;;;;;;-144.30;100.00;85969.00;5053035;28;20287;-57
2023/10/18 04:07:16;;;;;;;27.77;18.23;;;;;;;-144.30;100.00;85893.44;5052936;28;20224;-56
2023/10/18 04:09:47;;;;;;;24.30;17.73;;;;;;;-144.30;100.00;85955.09;5052314;28;20781;-57
2023/10/18 04:12:17;;;;;;;24.70;17.87;;;;;;;-144.30;100.00;85947.13;5053221;28;20196;-57
2023/10/18 04:14:52;;;;;;;22.47;17.27;;;;;;;-144.30;100.00;85917.31;5052968;28;20197;-57
2023/10/18 04:17:31;;;;;;;32.47;17.40;;;;;;;-144.30;100.00;85957.06;5049640;28;20660;-57
2023/10/18 04:19:58;;;;;;;24.53;17.53;;;;;;;-144.30;100.00;85949.13;5051900;28;20203;-58
2023/10/18 04:22:27;;;;;;;24.33;16.60;;;;;;;-144.30;100.00;85879.53;5072574;28;20743;-57
2023/10/18 04:24:54;;;;;;;19.03;14.97;;;;;;;-144.30;100.00;85937.19;5072429;28;20630;-58
2023/10/18 04:27:22;;;;;;;20.60;15.13;;;;;;;-144.30;100.00;85909.34;5071835;28;20192;-57
2023/10/18 04:29:49;;;;;;;29.13;16.23;;;;;;;-144.30;100.00;85953.09;5056731;28;20203;-53
2023/10/18 04:32:18;;;;;;;24.47;16.53;;;;;;;-144.30;100.00;85893.44;5043365;28;20209;-57
2023/10/18 04:34:46;;;;;;;22.93;16.87;;;;;;;-144.30;100.00;85945.16;5032142;28;20201;-57
2023/10/18 04:37:14;;;;;;;21.93;16.27;;;;;;;-144.30;100.00;85974.97;5031999;28;20197;-57
2023/10/18 04:39:42;;;;;;;22.93;15.20;;;;;;;-144.30;100.00;85943.16;5050283;28;20922;-58
2023/10/18 04:42:16;;;;;;;24.57;16.97;;;;;;;-144.30;100.00;85923.28;5067830;28;20210;-58
2023/10/18 04:44:47;;;;;;;20.83;16.10;;;;;;;-144.30;100.00;85897.44;5071527;28;20634;-57
2023/10/18 04:47:15;;;;;;;22.80;15.83;;;;;;;-144.30;100.00;85953.09;5053844;28;20220;-53
2023/10/18 04:49:50;;;;;;;22.60;16.60;;;;;;;-144.30;100.00;85951.13;5062487;28;20211;-53
2023/10/18 04:52:20;;;;;;;25.23;17.40;;;;;;;-144.30;100.00;85961.06;5072139;28;20203;-57
2023/10/18 04:54:59;;;;;;;25.77;16.53;;;;;;;-144.30;100.00;86334.88;5071779;28;20196;-58
2023/10/18 04:57:25;;;;;;;27.33;17.93;;;;;;;-144.30;100.00;85967.03;5071261;28;20233;-54
2023/10/18 04:59:59;;;;;;;23.03;17.07;;;;;;;-144.30;100.00;85941.16;5071914;28;20203;-53
2023/10/18 05:02:26;;;;;;;24.13;18.23;;;;;;;-144.30;100.00;85885.50;5071243;28;20203;-55
2023/10/18 05:04:54;;;;;;;26.07;17.27;;;;;;;-144.30;100.00;85980.94;5071922;28;20200;-52
2023/10/18 05:07:20;;;;;;;21.90;16.47;;;;;;;-144.30;100.00;85905.38;5072094;28;20670;-54
2023/10/18 05:09:55;;;;;;;23.63;16.57;;;;;;;-144.30;100.00;85957.06;5071016;28;20359;-54
2023/10/18 05:12:42;;;;;;;24.33;16.73;;;;;;;-144.30;100.00;85984.91;5071885;28;20249;-53
2023/10/18 05:15:16;;;;;;;24.17;17.07;;;;;;;-144.30;100.00;85965.03;5071522;28;20199;-58
2023/10/18 05:17:43;;;;;;;26.27;17.03;;;;;;;-144.30;100.00;85937.19;5070909;28;20196;-53
2023/10/18 05:20:22;;;;;;;26.77;17.53;;;;;;;-144.30;100.00;85921.28;5071932;28;20262;-58
2023/10/18 05:22:50;;;;;;;25.57;18.10;;;;;;;-144.30;100.00;85949.13;5044605;28;20248;-54
2023/10/18 05:25:23;;;;;;;22.97;16.60;;;;;;;-144.30;100.00;85921.28;5031480;28;20198;-58
2023/10/18 05:28:00;;;;;;;24.70;16.87;;;;;;;-144.30;100.00;85927.25;5047350;28;20297;-59
2023/10/18 05:31:03;;;;;;;24.73;18.37;;;;;;;-144.30;100.00;85917.31;5051568;28;20291;-58
2023/10/18 05:33:15;;;;;;;27.73;19.27;;;;;;;-144.30;100.00;85919.31;5051268;28;20208;-58
2023/10/18 05:35:45;;;;;;;26.43;18.47;;;;;;;-144.30;100.00;85921.28;5051316;28;20200;-58
2023/10/18 05:38:19;;;;;;;27.43;18.07;;;;;;;-144.30;100.00;85965.03;5051172;28;20211;-58
2023/10/18 05:40:56;;;;;;;24.73;18.07;;;;;;;-144.30;100.00;85917.31;5051147;28;20262;-58
2023/10/18 05:43:22;;;;;;;27.90;17.60;;;;;;;-144.30;100.00;85877.53;5051251;28;20204;-57
2023/10/18 05:45:55;;;;;;;27.47;19.27;;;;;;;-144.30;100.00;85959.06;5051012;28;20221;-53
2023/10/18 05:48:23;;;;;;;25.07;18.50;;;;;;;-144.30;100.00;85867.59;5051190;28;20311;-55
2023/10/18 05:50:56;;;;;;;26.60;18.10;;;;;;;-144.30;100.00;85889.47;5051169;28;20207;-53
2023/10/18 05:53:28;;;;;;;27.53;18.63;;;;;;;-144.30;100.00;85853.69;5050944;28;20196;-58
2023/10/18 05:55:56;;;;;;;25.80;18.70;;;;;;;-144.30;100.00;85949.13;5050824;28;20208;-59
2023/10/18 05:58:32;;;;;;;26.83;19.33;;;;;;;-144.30;100.00;85943.16;5051008;28;20207;-58
2023/10/18 06:01:02;;;;;;;29.40;21.57;;;;;;;-144.30;100.00;85929.25;5050689;28;20196;-58
2023/10/18 06:03:39;;;;;;;26.53;19.40;;;;;;;-144.30;100.00;85911.34;5047847;28;20591;-53
2023/10/18 06:06:06;;;;;;;25.20;18.77;;;;;;;-144.30;100.00;85937.19;5047019;28;20719;-58
2023/10/18 06:08:33;;;;;;;25.27;19.43;;;;;;;-144.30;100.00;85921.28;5059731;28;20732;-57
2023/10/18 06:11:06;;;;;;;29.00;19.10;;;;;;;-144.30;100.00;85885.50;5030683;28;20197;-57
2023/10/18 06:13:35;;;;;;;28.20;18.40;;;;;;;-144.30;100.00;85959.06;5030574;28;20201;-52
2023/10/18 06:16:18;;;;;;;23.53;17.67;;;;;;;-144.30;100.00;85909.34;5030517;28;20201;-53
2023/10/18 06:18:46;;;;;;;26.00;17.57;;;;;;;-144.30;100.00;85901.41;5030564;28;20692;-53
2023/10/18 06:21:18;;;;;;;22.67;16.93;;;;;;;-144.30;100.00;85889.47;5030430;28;20689;-57
2023/10/18 06:23:54;;;;;;;24.90;16.57;;;;;;;-144.30;100.00;85823.88;5030396;28;20207;-53
2023/10/18 06:26:28;;;;;;;20.90;17.27;;;;;;;-144.30;100.00;85865.63;5030150;28;20216;-53
2023/10/18 06:29:00;;;;;;;26.87;16.87;;;;;;;-144.30;100.00;85837.78;5030425;28;20647;-54
2023/10/18 06:31:29;;;;;;;26.00;17.70;;;;;;;-144.30;100.00;85849.72;5030656;28;20225;-54
2023/10/18 06:33:59;;;;;;;24.10;16.20;;;;;;;-144.30;100.00;85835.78;5030358;28;20193;-53
2023/10/18 06:36:26;;;;;;;20.80;15.43;;;;;;;-144.30;100.00;85809.94;5030388;28;20201;-52
2023/10/18 06:38:53;;;;;;;19.70;14.83;;;;;;;-144.30;100.00;85692.66;5030485;28;20197;-59
2023/10/18 06:41:22;;;;;;;19.03;14.17;;;;;;;-144.30;99.54;85849.72;5030338;28;20225;-59
2023/10/18 06:43:50;;;;;;;22.13;14.30;;;;;;;-144.30;98.60;85800.00;5030167;28;20205;-58
2023/10/18 06:46:22;;;;;;;22.37;14.50;;;;;;;-144.30;98.76;85833.81;5030085;28;20224;-58
2023/10/18 06:48:51;;;;;;;20.13;14.63;;;;;;;-144.30;98.78;85805.97;5029645;28;20228;-58
2023/10/18 06:51:26;;;;;;;19.37;13.77;;;;;;;-144.30;98.12;85831.81;5043402;28;20677;-58
2023/10/18 06:53:55;;;;;;;17.07;13.90;;;;;;;-144.30;97.75;85821.88;5069869;28;20196;-58
2023/10/18 06:56:23;;;;;;;37.53;21.73;;;;;;;-144.30;96.92;85758.25;5069710;28;20196;-54
2023/10/18 06:58:50;;;;;;;39.87;25.80;;;;;;;-144.30;95.76;85748.31;5069231;28;20224;-53
2023/10/18 07:01:20;;;;;;;21.53;16.70;;;;;;;-144.30;94.97;85742.34;5069638;28;20199;-53
2023/10/18 07:03:48;;;;;;;18.17;14.23;;;;;;;-144.30;93.65;85974.97;5069402;28;20199;-54
2023/10/18 07:06:23;;;;;;;39.20;27.93;;;;;;;-144.30;94.03;85738.38;5069655;28;20232;-54
2023/10/18 07:08:51;;;;;;;19.07;13.80;;;;;;;-144.30;93.71;85746.31;5069993;28;20239;-54
2023/10/18 07:11:18;;;;;;;18.70;13.07;;;;;;;-144.30;92.99;85750.31;5070131;28;20287;-54
2023/10/18 07:13:47;;;;;;;24.87;17.00;;;;;;;-144.30;93.22;85708.56;5069778;28;20243;-57
2023/10/18 07:16:16;;;;;;;16.90;12.43;;;;;;;-144.30;93.09;85740.38;5069539;28;20196;-58
2023/10/18 07:18:44;;;;;;;16.13;12.50;;;;;;;-144.30;93.27;85718.50;5069342;28;20195;-59
2023/10/18 07:21:18;;;;;;;14.53;13.00;;;;;;;-144.30;93.17;85738.38;5069650;28;20196;-53
2023/10/18 07:23:53;;;;;;;16.13;12.23;;;;;;;-144.30;91.84;85758.25;5037948;28;20201;-59
2023/10/18 07:26:21;;;;;;;12.27;10.70;;;;;;;-144.30;92.37;85778.13;5030099;28;20275;-58
2023/10/18 07:28:51;;;;;;;14.30;11.07;;;;;;;-144.30;92.43;85754.28;5029322;28;20283;-53
2023/10/18 07:31:18;;;;;;;16.00;11.03;;;;;;;-144.30;92.14;85744.34;5030224;28;20767;-59
2023/10/18 07:33:45;;;;;;;13.57;9.10;;;;;;;-144.30;91.87;85796.03;5033779;28;20895;-58
2023/10/18 07:36:15;;;;;;;11.83;10.20;;;;;;;-144.30;92.19;85724.47;5033688;28;20197;-52
2023/10/18 07:38:48;;;;;;;15.57;11.63;;;;;;;-144.30;93.32;85792.06;5033593;28;20201;-53
2023/10/18 07:41:18;;;;;;;12.13;10.13;;;;;;;-144.30;94.15;85750.31;5033461;28;20204;-53
2023/10/18 07:43:44;;;;;;;12.13;10.00;;;;;;;-144.30;93.83;85794.03;5033798;28;20205;-54
2023/10/18 07:46:18;;;;;;;10.53;9.50;;;;;;;-144.30;93.74;85817.91;5033232;28;20200;-53
2023/10/18 07:48:52;;;;;;;14.60;10.63;;;;;;;-144.30;93.99;85817.91;5033517;28;20670;-52
2023/10/18 07:51:24;;;;;;;19.60;11.03;;;;;;;-144.30;93.69;85774.16;5033386;28;20200;-53
2023/10/18 07:53:53;;;;;;;18.73;11.73;;;;;;;-144.30;93.63;85774.16;5033251;28;20205;-59
2023/10/18 07:56:26;;;;;;;11.97;10.37;;;;;;;-144.30;92.33;85748.31;5033723;28;20193;-58
2023/10/18 07:58:55;;;;;;;20.60;11.20;;;;;;;-144.30;92.54;85798.03;5045526;28;20237;-58
2023/10/18 08:01:47;;;;;;;15.33;11.43;;;;;;;-144.30;92.79;85770.19;5053293;28;20708;-58
2023/10/18 08:04:17;;;;;;;25.73;12.20;;;;;;;-144.30;92.55;85833.81;5052994;28;20301;-58
2023/10/18 08:06:44;;;;;;;15.27;11.87;;;;;;;-144.30;92.69;85762.22;5052951;28;20230;-58
2023/10/18 08:09:12;;;;;;;18.67;13.33;;;;;;;-144.30;92.65;85798.03;5052936;28;20203;-58
2023/10/18 08:11:38;;;;;;;15.30;12.27;;;;;;;-144.30;92.37;85792.06;5052983;28;20197;-58
2023/10/18 08:14:16;;;;;;;19.57;12.93;;;;;;;-144.30;92.80;85807.97;5052856;28;20203;-58
2023/10/18 08:16:44;;;;;;;14.97;13.50;;;;;;;-144.30;93.40;85809.94;5052846;28;20791;-58
2023/10/18 08:19:11;;;;;;;16.67;13.10;;;;;;;-144.30;93.43;85796.03;5053207;28;20736;-58
2023/10/18 08:21:38;;;;;;;19.13;13.53;;;;;;;-144.30;92.98;85794.03;5052719;28;20207;-58
2023/10/18 08:24:20;;;;;;;19.77;13.20;;;;;;;-144.30;92.48;85809.94;5052555;28;20243;-59
2023/10/18 08:26:48;;;;;;;15.27;12.83;;;;;;;-144.30;91.28;85740.38;5052364;28;20309;-58
2023/10/18 08:29:15;;;;;;;17.43;13.70;;;;;;;-144.30;91.36;85766.22;5052261;28;20232;-52
2023/10/18 08:31:48;;;;;;;16.70;13.43;;;;;;;-144.30;91.36;85726.44;5052470;28;20207;-52
2023/10/18 08:34:16;;;;;;;16.33;14.27;;;;;;;-144.30;90.62;85662.81;5052442;28;20271;-54
2023/10/18 08:36:44;;;;;;;16.10;14.33;;;;;;;-144.30;89.20;85672.75;5052620;28;20193;-52
2023/10/18 08:39:12;;;;;;;26.30;15.17;;;;;;;-144.30;87.96;85638.97;5052762;28;20208;-53
2023/10/18 08:41:49;;;;;;;18.10;14.17;;;;;;;-144.30;87.55;85613.13;5052307;28;20520;-59
2023/10/18 08:44:21;;;;;;;18.00;13.63;;;;;;;-144.30;84.99;85587.28;5050885;28;20196;-58
2023/10/18 08:46:55;;;;;;;20.03;13.73;;;;;;;-144.30;84.02;85581.31;5052331;28;20221;-52
2023/10/18 08:49:23;;;;;;;15.90;13.57;;;;;;;-144.30;83.60;85519.69;5052274;28;20283;-51
2023/10/18 08:51:56;;;;;;;20.37;15.17;;;;;;;-144.30;83.52;85583.31;5052155;28;20591;-58
2023/10/18 08:54:30;;;;;;;17.70;14.53;;;;;;;-144.30;83.10;85533.59;5051913;28;20200;-59
2023/10/18 08:57:06;;;;;;;19.10;13.93;;;;;;;-144.30;81.57;85438.19;5052209;28;20244;-53
2023/10/18 08:59:42;;;;;;;19.90;14.73;;;;;;;-144.30;82.14;85551.50;5037673;28;20212;-53
2023/10/18 09:02:17;;;;;;;32.10;22.67;;;;;;;-144.30;82.44;85525.66;5041109;28;20204;-53
2023/10/18 09:04:45;;;;;;;19.57;15.93;;;;;;;-144.30;81.52;85515.72;5047235;28;20196;-52
2023/10/18 09:07:22;;;;;;;18.03;14.70;;;;;;;-144.30;81.69;85412.34;5043514;28;20231;-54
2023/10/18 09:09:55;;;;;;;22.50;15.80;;;;;;;-144.30;81.14;85493.84;5033928;28;20598;-52
2023/10/18 09:12:35;;;;;;;19.73;14.73;;;;;;;-144.30;81.04;85521.69;5031888;28;20205;-52
2023/10/18 09:15:27;;;;;;;19.20;15.33;;;;;;;-144.30;81.57;85543.53;5031005;28;20197;-53
2023/10/18 09:17:54;;;;;;;29.80;16.77;;;;;;;-144.30;81.39;85499.81;5031693;28;20193;-52
2023/10/18 09:20:25;;;;;;;18.03;16.10;;;;;;;-144.30;81.52;85533.59;5031794;28;20230;-52
2023/10/18 09:22:53;;;;;;;20.73;16.33;;;;;;;-144.30;82.16;85537.59;5035483;28;20247;-54
2023/10/18 09:25:23;;;;;;;21.03;16.43;;;;;;;-144.30;81.75;85563.41;5039156;28;20193;-59
2023/10/18 09:27:51;;;;;;;18.63;15.30;;;;;;;-144.30;81.39;85521.69;5039005;28;20233;-58
2023/10/18 09:30:20;;;;;;;19.93;15.83;;;;;;;-144.30;81.45;85525.66;5031858;28;20550;-58
2023/10/18 09:32:47;;;;;;;22.03;16.63;;;;;;;-144.30;80.14;85501.78;5031027;28;20201;-52
2023/10/18 09:35:25;;;;;;;23.07;19.00;;;;;;;-144.30;80.48;85539.56;5031157;28;20205;-53
2023/10/18 09:37:52;;;;;;;27.67;19.67;;;;;;;-144.30;81.51;85531.63;5031427;28;20204;-52
2023/10/18 09:40:19;;;;;;;23.47;19.10;;;;;;;-144.30;82.59;85583.31;5031810;28;20324;-53
2023/10/18 09:42:46;;;;;;;23.00;19.27;;;;;;;-144.30;82.50;85539.56;5042310;28;20656;-53
2023/10/18 09:45:14;;;;;;;23.40;17.20;;;;;;;-144.30;82.60;85533.59;5031325;28;20685;-54
2023/10/18 09:47:42;;;;;;;18.00;16.10;;;;;;;-144.30;81.20;85549.50;5031276;28;20316;-53
2023/10/18 09:50:22;;;;;;;20.33;16.07;;;;;;;-144.30;81.88;85533.59;5031297;28;20197;-54
2023/10/18 09:52:57;;;;;;;19.93;17.23;;;;;;;-144.30;80.87;85430.22;5030834;28;20316;-54
2023/10/18 09:55:27;;;;;;;21.13;17.57;;;;;;;-144.30;80.70;85507.75;5030755;28;20201;-53
2023/10/18 09:58:02;;;;;;;20.73;17.53;;;;;;;-144.30;81.18;85509.75;5031109;28;20588;-55
2023/10/18 10:00:33;;;;;;;20.80;18.53;;;;;;;-144.30;80.90;85336.78;5033963;28;20197;-53
2023/10/18 10:03:08;;;;;;;21.80;17.83;;;;;;;-144.30;81.45;85545.53;5030685;28;20197;-53
2023/10/18 10:05:41;;;;;;;24.17;18.33;;;;;;;-144.30;82.07;85549.50;5030910;28;20255;-54
2023/10/18 10:08:10;;;;;;;21.10;17.07;;;;;;;-144.30;80.42;85513.72;5031036;28;20648;-54
2023/10/18 10:10:46;;;;;;;19.50;16.77;;;;;;;-144.30;80.32;85468.00;5030712;28;20284;-53
2023/10/18 10:13:18;;;;;;;20.00;16.90;;;;;;;-144.30;80.47;85507.75;5030605;28;20193;-54
2023/10/18 10:15:54;;;;;;;23.47;18.03;;;;;;;-144.30;81.26;85515.72;5030593;28;20822;-53
2023/10/18 10:18:24;;;;;;;23.87;17.93;;;;;;;-144.30;81.60;85523.66;5030640;28;20201;-58
2023/10/18 10:20:54;;;;;;;25.07;18.13;;;;;;;-144.30;80.46;85479.94;5030642;28;20223;-54
2023/10/18 10:23:22;;;;;;;21.60;17.17;;;;;;;-144.30;79.49;85450.09;5030468;28;20197;-54
2023/10/18 10:26:11;;;;;;;24.60;17.30;;;;;;;-144.30;79.03;85408.34;5030536;28;20669;-53
2023/10/18 10:31:51;;;;;;;17.23;15.43;;;;;;;-144.30;78.35;85434.22;5030360;28;20592;-53
2023/10/18 10:34:26;;;;;;;18.37;15.80;;;;;;;-144.30;78.50;85479.94;5030178;28;20288;-55
2023/10/18 10:36:54;;;;;;;17.87;15.97;;;;;;;-144.30;79.11;85454.09;5030431;28;20205;-53
2023/10/18 10:39:30;;;;;;;27.27;17.63;;;;;;;-144.30;77.89;85428.25;5030228;28;20201;-53
2023/10/18 10:42:08;;;;;;;16.80;14.33;;;;;;;-144.30;77.16;85253.31;5030158;28;20201;-53
2023/10/18 10:44:56;;;;;;;19.67;14.33;;;;;;;-144.30;76.91;85398.41;5030281;28;20208;-54
2023/10/18 10:47:30;;;;;;;20.73;13.23;;;;;;;-144.30;75.53;85404.38;5030247;28;20221;-54
2023/10/18 10:50:01;;;;;;;18.47;13.87;;;;;;;-144.30;74.49;85390.47;5030095;28;20246;-59
2023/10/18 10:52:30;;;;;;;15.03;13.20;;;;;;;-144.30;74.81;85410.34;5030151;28;20622;-59
2023/10/18 10:55:04;;;;;;;21.30;13.83;;;;;;;-144.30;75.71;85352.69;5030024;28;20208;-58
2023/10/18 10:57:35;;;;;;;14.40;12.87;;;;;;;-144.30;75.25;85430.22;5029962;28;20194;-58
2023/10/18 11:00:22;;;;;;;21.30;16.30;;;;;;;-144.30;76.13;85410.34;5030151;28;20696;-59
2023/10/18 11:02:53;;;;;;;18.43;14.43;;;;;;;-144.30;75.12;85348.72;5030024;28;20196;-59
2023/10/18 11:05:24;;;;;;;16.03;12.47;;;;;;;-144.30;74.34;85392.47;5029935;28;20259;-58
2023/10/18 11:07:53;;;;;;;14.83;13.23;;;;;;;-144.30;74.28;85386.50;5048063;28;20303;-58
2023/10/18 11:10:21;;;;;;;15.93;13.90;;;;;;;-144.30;74.38;85374.56;5049903;28;20203;-59
2023/10/18 11:12:48;;;;;;;16.20;13.43;;;;;;;-144.30;74.46;85404.38;5049968;28;20660;-53
2023/10/18 11:15:18;;;;;;;17.13;13.10;;;;;;;-144.30;74.70;85392.47;5049903;28;20204;-53
2023/10/18 11:17:48;;;;;;;14.80;12.67;;;;;;;-144.30;73.70;85340.78;5049924;28;20201;-53
2023/10/18 11:20:24;;;;;;;15.27;13.67;;;;;;;-144.30;73.42;85348.72;5049763;28;20597;-53